Time;durP1;ratioP1;P1;durP2;ratioP2;P2;SDS_P1;SDS_P2;PMS_P1;PMS_P2;Temp;Humidity;BMP_temperature;BMP_pressure;BME280_temperature;BME280_humidity;BME280_pressure;Samples;Min_cycle;Max_cycle;Signal;HPM_P1;HPM_P2
2024/02/24 00:01:37;;;;;;;0.30;0.20;;;;;;;6.55;99.04;98360.69;5057769;28;20450;-48
2024/02/24 00:04:04;;;;;;;0.30;0.10;;;;;;;6.46;98.75;98358.47;5072848;28;20885;-48
2024/02/24 00:06:30;;;;;;;0.30;0.20;;;;;;;6.41;99.52;98361.31;5053182;28;20509;-48
2024/02/24 00:08:57;;;;;;;0.30;0.20;;;;;;;6.16;100.00;98361.47;5072968;28;20446;-48
2024/02/24 00:11:23;;;;;;;0.30;0.20;;;;;;;6.04;99.80;98364.66;5071387;28;21014;-48
2024/02/24 00:13:50;;;;;;;0.30;0.20;;;;;;;6.21;99.05;98364.81;5072677;28;20987;-48
2024/02/24 00:16:16;;;;;;;0.30;0.20;;;;;;;6.13;98.46;98366.03;5072894;28;20456;-48
2024/02/24 00:18:43;;;;;;;0.30;0.20;;;;;;;5.89;98.37;98366.09;5072580;28;20473;-48
2024/02/24 00:21:09;;;;;;;0.30;0.20;;;;;;;5.66;98.48;98368.81;5072575;28;20446;-49
2024/02/24 00:23:35;;;;;;;0.30;0.20;;;;;;;5.87;99.48;98373.19;5072881;28;20454;-48
2024/02/24 00:26:02;;;;;;;0.30;0.20;;;;;;;5.86;99.76;98374.13;5072311;28;20497;-48
2024/02/24 00:28:29;;;;;;;0.30;0.20;;;;;;;5.90;99.11;98369.63;5072378;28;21068;-48
2024/02/24 00:30:55;;;;;;;0.30;0.10;;;;;;;5.76;99.61;98379.84;5072509;28;20457;-48
2024/02/24 00:33:21;;;;;;;0.30;0.20;;;;;;;5.71;99.88;98380.00;5072713;28;20923;-48
2024/02/24 00:35:48;;;;;;;0.30;0.20;;;;;;;5.83;99.48;98379.53;5065843;28;20514;-48
2024/02/24 00:38:14;;;;;;;0.30;0.20;;;;;;;5.57;98.82;98377.06;5072339;28;20446;-48
2024/02/24 00:40:41;;;;;;;0.30;0.20;;;;;;;5.46;98.92;98372.19;5059763;28;20497;-48
2024/02/24 00:43:07;;;;;;;0.30;0.20;;;;;;;5.31;99.67;98378.91;5071265;28;20528;-48
2024/02/24 00:45:34;;;;;;;0.30;0.20;;;;;;;5.41;99.54;98379.44;5072155;28;20465;-48
2024/02/24 00:48:00;;;;;;;0.30;0.20;;;;;;;5.47;99.51;98371.28;5072134;28;20460;-49
2024/02/24 00:50:28;;;;;;;0.30;0.20;;;;;;;5.49;99.48;98369.47;5072067;28;20472;-48
2024/02/24 00:52:56;;;;;;;0.30;0.20;;;;;;;5.38;99.47;98371.66;5072517;28;20499;-48
2024/02/24 00:55:23;;;;;;;0.30;0.20;;;;;;;5.44;100.00;98374.03;5041785;28;20558;-48
2024/02/24 00:57:50;;;;;;;0.30;0.20;;;;;;;5.39;100.00;98377.78;5062753;28;20533;-48
2024/02/24 01:00:17;;;;;;;0.30;0.20;;;;;;;5.61;100.00;98376.88;5066252;28;20505;-48
2024/02/24 01:02:44;;;;;;;0.30;0.10;;;;;;;5.74;100.00;98381.66;5062883;28;20481;-48
2024/02/24 01:05:10;;;;;;;0.30;0.20;;;;;;;5.68;100.00;98380.13;5070862;28;20557;-48
2024/02/24 01:07:37;;;;;;;0.30;0.20;;;;;;;5.67;100.00;98380.19;5054194;28;20482;-48
2024/02/24 01:10:04;;;;;;;0.30;0.10;;;;;;;5.82;100.00;98379.59;5071689;28;20906;-49
2024/02/24 01:12:30;;;;;;;0.30;0.20;;;;;;;5.71;100.00;98387.06;5071900;28;20553;-48
2024/02/24 01:14:57;;;;;;;0.30;0.20;;;;;;;5.74;100.00;98379.03;5071870;28;20565;-48
2024/02/24 01:17:24;;;;;;;0.30;0.20;;;;;;;5.60;100.00;98380.44;5072012;28;20540;-48
2024/02/24 01:19:50;;;;;;;0.30;0.20;;;;;;;5.82;100.00;98388.34;5071721;28;20521;-48
2024/02/24 01:22:17;;;;;;;0.30;0.20;;;;;;;5.81;100.00;98384.00;5071842;28;20544;-48
2024/02/24 01:24:44;;;;;;;0.30;0.10;;;;;;;5.90;100.00;98381.03;5072073;28;20553;-48
2024/02/24 01:27:10;;;;;;;0.30;0.20;;;;;;;5.97;100.00;98389.53;5072568;28;20544;-48
2024/02/24 01:29:37;;;;;;;0.30;0.20;;;;;;;5.85;100.00;98392.63;5074388;28;20538;-48
2024/02/24 01:32:04;;;;;;;0.30;0.20;;;;;;;5.93;99.98;98394.09;5075333;28;20457;-48
2024/02/24 01:34:30;;;;;;;0.30;0.17;;;;;;;5.93;99.90;98393.22;5075614;28;20510;-48
2024/02/24 01:36:57;;;;;;;0.30;0.20;;;;;;;6.02;100.00;98392.84;5071173;28;20454;-49
2024/02/24 01:39:23;;;;;;;0.30;0.10;;;;;;;6.07;100.00;98388.25;5073510;28;20542;-48
2024/02/24 01:41:50;;;;;;;0.30;0.10;;;;;;;6.11;100.00;98378.44;5068933;28;20456;-48
2024/02/24 01:44:18;;;;;;;0.30;0.20;;;;;;;6.04;100.00;98377.84;5075264;28;20496;-48
2024/02/24 01:46:46;;;;;;;0.30;0.20;;;;;;;6.12;100.00;98370.44;5077955;28;20450;-48
2024/02/24 01:49:13;;;;;;;0.30;0.20;;;;;;;6.35;99.59;98368.63;5076899;28;20529;-49
2024/02/24 01:51:41;;;;;;;0.30;0.20;;;;;;;6.33;98.77;98365.22;5073743;28;20828;-49
2024/02/24 01:54:09;;;;;;;0.30;0.20;;;;;;;6.38;97.99;98369.34;5064334;28;20538;-49
2024/02/24 01:56:38;;;;;;;0.30;0.20;;;;;;;6.22;98.10;98363.88;5065146;28;20886;-48
2024/02/24 01:59:05;;;;;;;0.30;0.20;;;;;;;6.23;99.19;98365.59;5045484;28;20497;-49
2024/02/24 02:01:32;;;;;;;0.30;0.10;;;;;;;6.30;98.58;98376.72;5056197;28;20451;-48
2024/02/24 02:03:58;;;;;;;0.30;0.20;;;;;;;6.40;98.92;98377.19;5071539;28;20477;-48
2024/02/24 02:06:28;;;;;;;0.30;0.20;;;;;;;6.34;98.78;98373.06;5052554;28;21023;-48
2024/02/24 02:08:55;;;;;;;0.30;0.20;;;;;;;6.41;98.06;98377.13;5071568;28;20477;-49
2024/02/24 02:11:22;;;;;;;0.30;0.20;;;;;;;6.42;99.29;98376.22;5071137;28;20537;-49
2024/02/24 02:13:49;;;;;;;0.30;0.10;;;;;;;6.49;98.37;98374.19;5071317;28;20461;-48
2024/02/24 02:16:15;;;;;;;0.30;0.20;;;;;;;6.40;98.82;98369.28;5071202;28;20456;-49
2024/02/24 02:18:41;;;;;;;0.30;0.20;;;;;;;6.31;98.97;98373.19;5071176;28;20450;-48
2024/02/24 02:21:08;;;;;;;0.30;0.10;;;;;;;6.27;99.63;98374.22;5071247;28;20542;-48
2024/02/24 02:23:35;;;;;;;0.30;0.10;;;;;;;6.01;100.00;98375.31;5071390;28;20822;-48
2024/02/24 02:26:02;;;;;;;0.30;0.20;;;;;;;6.08;100.00;98381.19;5070921;28;20553;-48
2024/02/24 02:28:29;;;;;;;0.30;0.17;;;;;;;6.17;100.00;98388.75;5071301;28;20450;-48
2024/02/24 02:30:56;;;;;;;0.30;0.20;;;;;;;5.91;99.78;98390.66;5071131;28;20949;-48
2024/02/24 02:33:22;;;;;;;0.30;0.20;;;;;;;5.89;100.00;98399.50;5071115;28;20481;-48
2024/02/24 02:35:49;;;;;;;0.30;0.20;;;;;;;5.78;99.69;98394.69;5064377;28;20479;-48
2024/02/24 02:38:15;;;;;;;0.30;0.20;;;;;;;5.65;100.00;98398.72;5070955;28;20468;-48
2024/02/24 02:40:42;;;;;;;0.30;0.10;;;;;;;5.59;100.00;98399.78;5058343;28;20500;-48
2024/02/24 02:43:08;;;;;;;0.30;0.20;;;;;;;5.52;100.00;98403.59;5073614;28;20819;-48
2024/02/24 02:45:35;;;;;;;0.30;0.10;;;;;;;5.58;100.00;98405.97;5074220;28;20971;-48
2024/02/24 02:48:02;;;;;;;0.30;0.20;;;;;;;5.72;100.00;98407.22;5074528;28;20446;-48
2024/02/24 02:50:28;;;;;;;0.30;0.20;;;;;;;5.78;100.00;98414.91;5074562;28;20450;-48
2024/02/24 02:52:55;;;;;;;0.30;0.10;;;;;;;6.00;100.00;98415.78;5074384;28;20943;-47
2024/02/24 02:55:22;;;;;;;0.30;0.20;;;;;;;6.08;100.00;98416.34;5066640;23;20508;-50
2024/02/24 02:57:49;;;;;;;0.30;0.20;;;;;;;6.05;100.00;98408.56;5081353;28;20556;-50
2024/02/24 03:00:16;;;;;;;0.30;0.20;;;;;;;6.06;100.00;98414.69;5087618;28;20482;-49
2024/02/24 03:02:42;;;;;;;0.30;0.20;;;;;;;5.95;100.00;98412.47;5076234;28;20448;-49
2024/02/24 03:05:09;;;;;;;0.30;0.17;;;;;;;5.74;100.00;98413.28;5091310;28;21048;-50
2024/02/24 03:07:35;;;;;;;0.30;0.10;;;;;;;5.82;100.00;98420.00;5085085;28;20522;-50
2024/02/24 03:10:03;;;;;;;0.30;0.10;;;;;;;5.91;100.00;98419.66;5094118;28;20443;-50
2024/02/24 03:12:29;;;;;;;0.30;0.20;;;;;;;5.89;100.00;98412.69;5094145;28;20476;-50
2024/02/24 03:14:56;;;;;;;0.30;0.20;;;;;;;5.85;100.00;98419.84;5089785;28;20543;-50
2024/02/24 03:17:23;;;;;;;0.30;0.20;;;;;;;5.87;100.00;98414.53;5093924;28;20449;-49
2024/02/24 03:19:49;;;;;;;0.30;0.20;;;;;;;5.72;100.00;98417.75;5093894;28;20496;-49
2024/02/24 03:22:15;;;;;;;0.30;0.20;;;;;;;5.68;99.42;98416.19;5093796;28;20541;-50
2024/02/24 03:24:43;;;;;;;0.30;0.20;;;;;;;5.58;99.60;98432.34;5093589;28;20504;-50
2024/02/24 03:27:13;;;;;;;0.30;0.20;;;;;;;5.70;100.00;98432.78;5093894;28;20453;-50
2024/02/24 03:29:40;;;;;;;0.30;0.20;;;;;;;5.70;99.84;98435.41;5093469;28;20811;-50
2024/02/24 03:32:07;;;;;;;0.30;0.17;;;;;;;5.80;100.00;98435.00;5093720;28;20480;-50
2024/02/24 03:34:33;;;;;;;0.30;0.20;;;;;;;5.83;100.00;98429.59;5093706;28;20468;-50
2024/02/24 03:37:00;;;;;;;0.30;0.10;;;;;;;5.94;99.18;98426.59;5091352;28;20475;-50
2024/02/24 03:39:26;;;;;;;0.30;0.20;;;;;;;6.03;98.38;98420.06;5093216;28;20945;-50
2024/02/24 03:41:53;;;;;;;0.30;0.10;;;;;;;6.26;98.69;98425.28;5093533;28;20507;-50
2024/02/24 03:44:19;;;;;;;0.30;0.20;;;;;;;6.15;98.45;98432.75;5093085;28;20560;-50
2024/02/24 03:46:46;;;;;;;0.30;0.20;;;;;;;6.25;99.12;98434.09;5093657;28;20880;-50
2024/02/24 03:49:12;;;;;;;0.30;0.20;;;;;;;6.24;98.37;98432.41;5093677;28;20456;-50
2024/02/24 03:51:39;;;;;;;0.30;0.20;;;;;;;6.22;99.11;98445.66;5083182;28;20495;-50
2024/02/24 03:54:06;;;;;;;0.30;0.20;;;;;;;6.30;98.86;98439.19;5052966;28;20458;-49
2024/02/24 03:56:32;;;;;;;0.30;0.20;;;;;;;6.29;99.02;98426.91;5066246;28;20912;-49
2024/02/24 03:58:58;;;;;;;0.30;0.10;;;;;;;6.36;98.76;98429.25;5066692;28;20460;-50
2024/02/24 04:01:27;;;;;;;0.30;0.20;;;;;;;6.33;98.50;98423.25;5078615;28;20551;-50
2024/02/24 04:03:54;;;;;;;0.30;0.20;;;;;;;6.27;98.43;98434.03;5093228;28;20506;-50
2024/02/24 04:06:21;;;;;;;0.30;0.20;;;;;;;6.30;98.47;98439.19;5082746;28;20462;-50
2024/02/24 04:08:47;;;;;;;0.30;0.13;;;;;;;6.14;98.53;98450.38;5079716;28;21028;-49
2024/02/24 04:11:14;;;;;;;0.30;0.20;;;;;;;5.86;98.74;98460.25;5085626;28;20543;-50
2024/02/24 04:13:41;;;;;;;0.30;0.20;;;;;;;5.86;99.46;98450.56;5092775;28;20452;-50
2024/02/24 04:16:07;;;;;;;0.30;0.20;;;;;;;5.82;99.31;98453.41;5092843;28;20469;-49
2024/02/24 04:18:34;;;;;;;0.30;0.20;;;;;;;5.84;98.64;98448.91;5093027;28;20441;-49
2024/02/24 04:21:00;;;;;;;0.30;0.10;;;;;;;5.85;98.40;98456.78;5092976;28;20493;-50
2024/02/24 04:23:27;;;;;;;0.30;0.20;;;;;;;5.96;98.42;98459.03;5093313;28;20479;-50
2024/02/24 04:25:53;;;;;;;0.30;0.20;;;;;;;5.90;98.14;98457.50;5093569;28;20465;-50
2024/02/24 04:28:21;;;;;;;0.30;0.20;;;;;;;5.92;97.31;98462.72;5093250;28;20992;-49
2024/02/24 04:30:48;;;;;;;0.30;0.20;;;;;;;5.73;97.75;98451.97;5092772;28;20449;-50
2024/02/24 04:33:15;;;;;;;0.30;0.20;;;;;;;5.57;97.45;98456.97;5092910;28;20455;-49
2024/02/24 04:35:41;;;;;;;0.30;0.20;;;;;;;5.37;97.27;98450.75;5088925;28;20520;-50
2024/02/24 04:38:08;;;;;;;0.30;0.20;;;;;;;5.15;100.00;98448.91;5092636;28;20523;-50
2024/02/24 04:40:35;;;;;;;0.30;0.20;;;;;;;5.17;99.97;98452.31;5092214;28;20488;-50
2024/02/24 04:43:02;;;;;;;0.30;0.10;;;;;;;5.17;99.94;98452.31;5092677;28;20449;-49
2024/02/24 04:45:28;;;;;;;0.30;0.20;;;;;;;5.11;99.71;98449.94;5092354;28;20504;-50
2024/02/24 04:47:54;;;;;;;0.30;0.20;;;;;;;5.16;100.00;98460.28;5092329;28;20499;-49
2024/02/24 04:50:21;;;;;;;0.30;0.20;;;;;;;5.12;100.00;98456.06;5092299;28;20445;-50
2024/02/24 04:52:48;;;;;;;0.30;0.20;;;;;;;5.19;99.75;98458.41;5080467;28;20476;-49
2024/02/24 04:55:14;;;;;;;0.30;0.10;;;;;;;5.20;99.61;98443.44;5077425;28;20932;-49
2024/02/24 04:57:41;;;;;;;0.30;0.20;;;;;;;5.21;100.00;98440.78;5092245;28;20544;-49
2024/02/24 05:00:08;;;;;;;0.30;0.10;;;;;;;5.37;100.00;98437.59;5088438;28;20533;-50
2024/02/24 05:02:34;;;;;;;0.30;0.10;;;;;;;5.40;100.00;98443.59;5081840;28;20453;-50
2024/02/24 05:05:01;;;;;;;0.30;0.20;;;;;;;5.25;99.13;98437.13;5091120;28;20475;-49
2024/02/24 05:07:27;;;;;;;0.30;0.17;;;;;;;5.28;99.96;98438.78;5082872;28;20453;-49
2024/02/24 05:09:54;;;;;;;0.30;0.10;;;;;;;5.36;100.00;98442.00;5092186;28;20545;-49
2024/02/24 05:12:20;;;;;;;0.30;0.20;;;;;;;5.45;100.00;98454.78;5092320;28;20889;-50
2024/02/24 05:14:50;;;;;;;0.30;0.10;;;;;;;5.46;100.00;98458.28;5092199;28;20475;-49
2024/02/24 05:17:16;;;;;;;0.30;0.10;;;;;;;5.49;100.00;98459.06;5092072;28;20449;-50
2024/02/24 05:19:43;;;;;;;0.30;0.10;;;;;;;5.50;100.00;98467.81;5091717;28;20452;-50
2024/02/24 05:22:09;;;;;;;0.30;0.20;;;;;;;5.50;100.00;98468.69;5091661;28;20521;-50
2024/02/24 05:24:36;;;;;;;0.30;0.17;;;;;;;5.60;100.00;98472.66;5091444;28;21073;-50
2024/02/24 05:27:04;;;;;;;0.30;0.17;;;;;;;5.61;99.53;98471.75;5091918;28;20456;-49
2024/02/24 05:29:32;;;;;;;0.30;0.20;;;;;;;5.74;100.00;98476.56;5086458;28;20472;-49
2024/02/24 05:31:58;;;;;;;0.30;0.20;;;;;;;5.64;100.00;98471.66;5079653;28;20446;-49
2024/02/24 05:34:25;;;;;;;0.30;0.10;;;;;;;5.46;100.00;98469.69;5089201;28;20536;-49
2024/02/24 05:36:51;;;;;;;0.30;0.20;;;;;;;5.70;100.00;98475.81;5077751;28;20465;-49
2024/02/24 05:39:18;;;;;;;0.30;0.13;;;;;;;5.90;100.00;98483.00;5083617;28;20529;-49
2024/02/24 05:41:44;;;;;;;0.30;0.30;;;;;;;5.97;100.00;98481.84;5091450;28;21030;-48
2024/02/24 05:44:11;;;;;;;0.30;0.20;;;;;;;6.09;99.93;98489.25;5079343;28;20452;-49
2024/02/24 05:46:37;;;;;;;0.30;0.20;;;;;;;6.21;99.25;98482.66;5091474;28;20472;-48
2024/02/24 05:49:04;;;;;;;0.30;0.20;;;;;;;6.29;100.00;98482.31;5091113;28;21020;-49
2024/02/24 05:51:30;;;;;;;0.30;0.10;;;;;;;6.38;99.86;98489.88;5091360;28;20449;-49
2024/02/24 05:53:57;;;;;;;0.30;0.10;;;;;;;6.59;99.28;98494.28;5085645;28;20966;-48
2024/02/24 05:56:23;;;;;;;0.30;0.20;;;;;;;6.66;98.15;98494.88;5082669;28;20473;-49
2024/02/24 05:58:50;;;;;;;0.30;0.20;;;;;;;6.69;98.03;98492.97;5091097;28;20928;-48
2024/02/24 06:01:18;;;;;;;0.30;0.20;;;;;;;6.75;98.92;98499.78;5077319;28;20577;-49
2024/02/24 06:03:44;;;;;;;0.30;0.20;;;;;;;6.80;98.12;98503.94;5090138;28;20889;-49
2024/02/24 06:06:11;;;;;;;0.30;0.20;;;;;;;6.86;97.81;98504.63;5082058;28;20846;-48
2024/02/24 06:08:38;;;;;;;0.30;0.20;;;;;;;6.84;98.04;98502.88;5090343;28;20445;-49
2024/02/24 06:11:04;;;;;;;0.30;0.20;;;;;;;7.04;98.32;98517.03;5091265;28;20457;-49
2024/02/24 06:13:31;;;;;;;0.30;0.20;;;;;;;6.95;97.82;98507.69;5088038;28;20441;-49
2024/02/24 06:15:57;;;;;;;0.30;0.20;;;;;;;7.05;96.16;98510.81;5073901;28;20549;-49
2024/02/24 06:18:24;;;;;;;0.30;0.20;;;;;;;7.08;96.74;98514.19;5091889;28;20459;-50
2024/02/24 06:20:52;;;;;;;0.30;0.20;;;;;;;7.04;96.68;98515.25;5095901;28;20519;-49
2024/02/24 06:23:19;;;;;;;0.30;0.20;;;;;;;7.12;97.12;98522.81;5085419;28;20449;-50
2024/02/24 06:25:45;;;;;;;0.30;0.20;;;;;;;7.06;96.99;98516.03;5094788;28;20465;-49
2024/02/24 06:28:12;;;;;;;0.30;0.20;;;;;;;7.15;97.18;98532.44;5095066;28;21017;-49
2024/02/24 06:30:39;;;;;;;0.30;0.20;;;;;;;7.23;96.56;98536.44;5094835;28;20894;-56
2024/02/24 06:33:07;;;;;;;0.30;0.20;;;;;;;7.16;96.17;98532.34;5093178;28;20449;-50
2024/02/24 06:35:34;;;;;;;0.30;0.20;;;;;;;7.21;96.34;98532.16;5088969;28;20468;-50
2024/02/24 06:38:00;;;;;;;0.30;0.20;;;;;;;7.23;96.24;98536.44;5094773;28;20449;-50
2024/02/24 06:40:27;;;;;;;0.30;0.10;;;;;;;7.26;95.65;98540.72;5094771;28;20485;-50
2024/02/24 06:43:06;;;;;;;0.30;0.20;;;;;;;7.26;96.22;98546.88;5094875;28;20445;-50
2024/02/24 06:45:32;;;;;;;0.30;0.20;;;;;;;7.36;95.73;98555.25;5081691;28;20520;-50
2024/02/24 06:47:59;;;;;;;0.30;0.20;;;;;;;7.41;95.05;98553.28;5094585;28;20903;-49
2024/02/24 06:50:27;;;;;;;0.30;0.20;;;;;;;7.34;95.51;98551.84;5094596;28;20445;-50
2024/02/24 06:52:54;;;;;;;0.30;0.20;;;;;;;7.36;95.42;98557.91;5094490;28;20449;-49
2024/02/24 06:55:20;;;;;;;0.30;0.20;;;;;;;7.53;95.05;98568.59;5064219;28;20852;-49
2024/02/24 06:57:48;;;;;;;0.30;0.20;;;;;;;7.45;95.08;98570.72;5084535;28;20548;-50
2024/02/24 07:00:15;;;;;;;0.30;0.20;;;;;;;7.47;94.17;98568.88;5093074;28;20535;-49
2024/02/24 07:02:41;;;;;;;0.30;0.10;;;;;;;7.46;94.46;98571.59;5094412;28;20493;-50
2024/02/24 07:05:11;;;;;;;0.30;0.20;;;;;;;7.53;95.04;98578.31;5083606;28;20961;-50
2024/02/24 07:07:37;;;;;;;0.30;0.20;;;;;;;7.51;94.13;98581.03;5085491;28;20445;-50
2024/02/24 07:10:04;;;;;;;0.30;0.20;;;;;;;7.53;93.83;98588.88;5093916;28;20453;-49
2024/02/24 07:12:31;;;;;;;0.30;0.20;;;;;;;7.60;93.54;98593.00;5076601;28;20441;-49
2024/02/24 07:14:58;;;;;;;0.30;0.20;;;;;;;7.78;93.28;98593.97;5093666;28;20993;-52
2024/02/24 07:17:26;;;;;;;0.30;0.20;;;;;;;7.75;94.02;98592.31;5093923;28;20505;-51
2024/02/24 07:19:53;;;;;;;0.30;0.20;;;;;;;7.71;93.59;98598.66;5093652;28;20455;-51
2024/02/24 07:22:20;;;;;;;0.30;0.20;;;;;;;7.91;92.99;98598.63;5082782;28;20571;-50
2024/02/24 07:24:47;;;;;;;0.30;0.20;;;;;;;7.81;93.70;98614.97;5075196;28;20545;-51
2024/02/24 07:27:13;;;;;;;0.30;0.20;;;;;;;7.73;94.76;98612.69;5074651;28;20537;-51
2024/02/24 07:29:40;;;;;;;0.30;0.20;;;;;;;7.75;93.68;98613.47;5086543;28;20451;-51
2024/02/24 07:32:06;;;;;;;0.30;0.20;;;;;;;7.81;93.71;98615.88;5093609;28;20441;-51
2024/02/24 07:34:33;;;;;;;0.30;0.20;;;;;;;7.93;93.48;98632.94;5080902;28;21000;-51
2024/02/24 07:37:00;;;;;;;0.30;0.20;;;;;;;7.70;93.16;98633.97;5090344;28;20484;-51
2024/02/24 07:39:27;;;;;;;0.30;0.20;;;;;;;7.94;93.89;98639.94;5089595;28;20571;-50
2024/02/24 07:41:54;;;;;;;0.30;0.20;;;;;;;7.96;93.89;98638.97;5070970;28;20500;-51
2024/02/24 07:44:20;;;;;;;0.30;0.20;;;;;;;7.88;92.76;98650.81;5075422;28;20468;-51
2024/02/24 07:46:47;;;;;;;0.30;0.20;;;;;;;7.94;92.92;98648.75;5072586;28;20461;-51
2024/02/24 07:49:14;;;;;;;0.30;0.10;;;;;;;8.01;93.03;98655.50;5074770;28;20517;-51
2024/02/24 07:51:42;;;;;;;0.30;0.20;;;;;;;7.90;92.60;98655.09;5070721;28;20476;-51
2024/02/24 07:54:09;;;;;;;0.30;0.20;;;;;;;7.84;92.95;98668.63;5068271;28;20542;-51
2024/02/24 07:56:36;;;;;;;0.30;0.20;;;;;;;8.09;92.16;98660.47;5079667;28;20556;-49
2024/02/24 07:59:02;;;;;;;0.30;0.17;;;;;;;7.92;92.05;98661.19;5086111;28;20450;-51
2024/02/24 08:01:29;;;;;;;0.30;0.20;;;;;;;7.86;92.70;98666.75;5073127;28;20482;-52
2024/02/24 08:03:55;;;;;;;0.30;0.20;;;;;;;7.72;93.70;98669.16;5093144;28;20532;-50
2024/02/24 08:06:22;;;;;;;0.30;0.20;;;;;;;7.72;93.40;98677.94;5082974;28;20907;-51
2024/02/24 08:08:49;;;;;;;0.30;0.20;;;;;;;7.75;93.45;98684.88;5092841;28;20445;-51
2024/02/24 08:11:16;;;;;;;0.30;0.10;;;;;;;7.54;95.21;98694.59;5092601;28;20505;-51
2024/02/24 08:13:43;;;;;;;0.30;0.20;;;;;;;7.56;95.52;98703.31;5093052;28;20449;-50
2024/02/24 08:16:09;;;;;;;0.30;0.20;;;;;;;7.36;95.79;98705.91;5092681;28;20559;-51
2024/02/24 08:18:36;;;;;;;0.30;0.20;;;;;;;7.39;96.96;98708.44;5092844;28;20445;-50
2024/02/24 08:21:06;;;;;;;0.30;0.20;;;;;;;7.59;96.22;98724.34;5092451;28;20445;-50
2024/02/24 08:23:36;;;;;;;0.30;0.20;;;;;;;7.51;96.36;98725.56;5092367;28;20453;-50
2024/02/24 08:26:03;;;;;;;0.30;0.20;;;;;;;7.35;96.40;98727.97;5092373;28;21008;-51
2024/02/24 08:28:30;;;;;;;0.30;0.20;;;;;;;7.54;96.53;98728.97;5092730;28;20487;-51
2024/02/24 08:30:59;;;;;;;0.30;0.20;;;;;;;7.34;96.53;98748.28;5092445;28;20480;-51
2024/02/24 08:33:26;;;;;;;0.30;0.20;;;;;;;7.40;95.71;98752.44;5092712;28;20510;-51
2024/02/24 08:35:53;;;;;;;0.30;0.20;;;;;;;7.24;94.80;98761.91;5089291;28;20469;-51
2024/02/24 08:38:20;;;;;;;0.30;0.20;;;;;;;7.29;94.35;98765.25;5092782;28;20457;-51
2024/02/24 08:40:46;;;;;;;0.30;0.20;;;;;;;7.60;93.74;98771.00;5092427;28;20532;-51
2024/02/24 08:43:13;;;;;;;0.30;0.20;;;;;;;7.56;92.76;98769.41;5092470;28;20492;-51
2024/02/24 08:45:41;;;;;;;0.30;0.20;;;;;;;7.61;91.09;98764.78;5090922;28;20555;-50
2024/02/24 08:48:12;;;;;;;0.30;0.20;;;;;;;7.75;90.13;98776.59;5092271;28;20467;-51
2024/02/24 08:50:39;;;;;;;0.30;0.20;;;;;;;7.71;90.40;98779.38;5091935;28;20445;-51
2024/02/24 08:53:06;;;;;;;0.30;0.20;;;;;;;7.68;90.67;98787.44;5092048;28;20815;-50
2024/02/24 08:55:32;;;;;;;0.30;0.20;;;;;;;7.92;90.77;98785.53;5092144;23;20524;-49
2024/02/24 08:57:59;;;;;;;0.30;0.20;;;;;;;7.98;90.55;98798.50;5092399;28;20527;-49
2024/02/24 09:00:25;;;;;;;0.30;0.20;;;;;;;8.14;89.30;98792.56;5092457;28;20530;-48
2024/02/24 09:02:52;;;;;;;0.30;0.20;;;;;;;7.88;90.70;98806.88;5092284;28;20925;-48
2024/02/24 09:05:18;;;;;;;0.30;0.20;;;;;;;8.10;90.17;98804.22;5089501;28;20531;-48
2024/02/24 09:07:45;;;;;;;0.30;0.20;;;;;;;8.10;90.15;98812.16;5076938;28;20883;-49
2024/02/24 09:10:11;;;;;;;0.30;0.20;;;;;;;8.13;91.26;98810.22;5092482;28;20903;-48
2024/02/24 09:12:38;;;;;;;0.30;0.10;;;;;;;8.44;90.54;98815.09;5092205;28;20452;-49
2024/02/24 09:15:06;;;;;;;0.30;0.17;;;;;;;8.47;90.01;98822.03;5081902;28;20510;-50
2024/02/24 09:17:32;;;;;;;0.30;0.20;;;;;;;8.46;88.65;98825.59;5075802;28;20452;-49
2024/02/24 09:19:59;;;;;;;0.30;0.20;;;;;;;8.49;88.12;98818.38;5091615;28;20445;-49
2024/02/24 09:22:25;;;;;;;0.30;0.20;;;;;;;8.73;88.25;98815.59;5091898;28;20576;-50
2024/02/24 09:24:52;;;;;;;0.30;0.17;;;;;;;8.70;86.22;98821.88;5091273;28;20898;-48
2024/02/24 09:27:18;;;;;;;0.30;0.20;;;;;;;8.77;86.71;98828.66;5091852;28;20540;-49
2024/02/24 09:29:45;;;;;;;0.30;0.20;;;;;;;8.99;85.71;98830.31;5091421;28;20954;-49
2024/02/24 09:32:12;;;;;;;0.30;0.20;;;;;;;9.01;84.20;98831.94;5091460;28;20452;-49
2024/02/24 09:34:39;;;;;;;0.30;0.20;;;;;;;9.13;83.78;98839.34;5091726;28;20821;-49
2024/02/24 09:37:05;;;;;;;0.30;0.20;;;;;;;8.92;83.21;98836.84;5085247;28;20462;-49
2024/02/24 09:39:32;;;;;;;0.30;0.20;;;;;;;8.80;83.52;98841.75;5091372;28;20544;-49
2024/02/24 09:42:01;;;;;;;0.30;0.20;;;;;;;8.78;82.07;98850.69;5091694;28;20480;-49
2024/02/24 09:44:31;;;;;;;0.30;0.20;;;;;;;8.48;84.56;98858.19;5092320;28;21030;-49
2024/02/24 09:46:57;;;;;;;0.30;0.20;;;;;;;8.39;86.80;98861.25;5092570;28;20476;-48
2024/02/24 09:49:29;;;;;;;0.30;0.20;;;;;;;8.45;87.63;98866.25;5092094;28;20480;-49
2024/02/24 09:51:56;;;;;;;0.30;0.20;;;;;;;8.22;88.81;98875.13;5094129;28;20437;-49
2024/02/24 09:54:23;;;;;;;0.30;0.20;;;;;;;8.39;88.28;98877.97;5087116;28;20450;-49
2024/02/24 09:56:53;;;;;;;0.30;0.20;;;;;;;8.34;88.50;98887.88;5090839;28;20486;-48
2024/02/24 09:59:21;;;;;;;0.30;0.20;;;;;;;8.58;89.08;98892.16;5095459;28;20990;-49
2024/02/24 10:01:48;;;;;;;0.30;0.20;;;;;;;8.51;90.19;98888.06;5079983;28;20996;-49
2024/02/24 10:04:15;;;;;;;0.30;0.20;;;;;;;8.43;90.79;98886.66;5095699;28;20968;-49
2024/02/24 10:06:41;;;;;;;0.30;0.20;;;;;;;8.54;89.58;98900.31;5076149;28;20469;-50
2024/02/24 10:09:08;;;;;;;0.30;0.20;;;;;;;8.25;92.91;98902.34;5095406;28;20533;-49
2024/02/24 10:11:35;;;;;;;0.30;0.20;;;;;;;8.50;92.23;98904.00;5095485;28;20544;-48
2024/02/24 10:14:04;;;;;;;0.30;0.20;;;;;;;8.58;90.95;98907.19;5095175;28;21059;-50
2024/02/24 10:16:34;;;;;;;0.30;0.20;;;;;;;8.50;90.28;98912.81;5095090;28;20549;-49
2024/02/24 10:19:03;;;;;;;0.30;0.17;;;;;;;8.33;89.96;98916.13;5095307;28;20445;-49
2024/02/24 10:21:29;;;;;;;0.30;0.20;;;;;;;8.28;88.92;98919.91;5095310;28;21036;-48
2024/02/24 10:23:56;;;;;;;0.30;0.20;;;;;;;8.09;88.28;98932.16;5095956;28;20536;-48
2024/02/24 10:26:23;;;;;;;0.30;0.20;;;;;;;8.12;87.37;98932.03;5095882;28;20981;-48
2024/02/24 10:28:50;;;;;;;0.30;0.20;;;;;;;8.22;87.19;98944.84;5096151;28;20534;-48
2024/02/24 10:31:18;;;;;;;0.30;0.20;;;;;;;8.21;88.43;98953.69;5096155;28;20449;-48
2024/02/24 10:33:46;;;;;;;0.30;0.20;;;;;;;8.07;88.11;98949.88;5096192;28;20563;-48
2024/02/24 10:36:14;;;;;;;0.30;0.10;;;;;;;8.32;86.66;98950.59;5090552;28;20544;-48
2024/02/24 10:38:42;;;;;;;0.30;0.20;;;;;;;8.37;86.23;98948.69;5095314;28;20448;-49
2024/02/24 10:41:19;;;;;;;0.30;0.20;;;;;;;8.40;83.92;98953.84;5071311;28;20527;-49
2024/02/24 10:43:51;;;;;;;0.30;0.20;;;;;;;8.41;83.14;98954.69;5096200;28;20869;-48
2024/02/24 10:46:21;;;;;;;0.30;0.20;;;;;;;8.27;83.51;98950.81;5094638;28;20533;-49
2024/02/24 10:48:48;;;;;;;0.30;0.20;;;;;;;8.26;82.76;98953.50;5095632;28;20464;-49
2024/02/24 10:51:15;;;;;;;0.30;0.20;;;;;;;8.30;83.68;98963.03;5096213;28;20452;-49
2024/02/24 10:53:49;;;;;;;0.30;0.20;;;;;;;8.44;83.75;98955.44;5088872;28;20518;-49
2024/02/24 10:56:18;;;;;;;0.30;0.20;;;;;;;8.47;84.03;98959.72;5066783;28;20831;-49
2024/02/24 10:58:45;;;;;;;0.30;0.10;;;;;;;8.27;84.18;98957.88;5093300;28;20937;-49
2024/02/24 11:01:12;;;;;;;0.30;0.20;;;;;;;8.37;83.20;98961.91;5070826;28;20447;-48
2024/02/24 11:03:40;;;;;;;0.30;0.20;;;;;;;8.54;84.00;98958.56;5089805;28;20993;-49
2024/02/24 11:06:06;;;;;;;0.30;0.20;;;;;;;8.69;82.99;98963.22;5077483;28;20557;-49
2024/02/24 11:08:45;;;;;;;0.30;0.10;;;;;;;8.67;83.28;98962.41;5091211;28;20480;-48
2024/02/24 11:11:14;;;;;;;0.30;0.20;;;;;;;9.13;82.99;98957.78;5094100;28;20449;-48
2024/02/24 11:13:47;;;;;;;0.30;0.20;;;;;;;9.46;81.30;98958.06;5094140;28;20444;-49
2024/02/24 11:16:38;;;;;;;0.30;0.20;;;;;;;9.48;81.53;98950.91;5093758;28;20468;-49
2024/02/24 11:19:10;;;;;;;0.30;0.20;;;;;;;9.71;78.44;98942.72;5094254;28;20461;-49
2024/02/24 11:22:02;;;;;;;0.30;0.20;;;;;;;9.36;78.56;98935.53;5094128;28;20604;-49
2024/02/24 11:24:34;;;;;;;0.30;0.20;;;;;;;9.47;77.92;98936.78;5093672;28;20449;-48
2024/02/24 11:27:02;;;;;;;0.30;0.20;;;;;;;9.50;78.04;98925.16;5094224;28;20542;-47
2024/02/24 11:29:29;;;;;;;0.30;0.20;;;;;;;9.71;77.58;98924.16;5092810;28;20543;-46
2024/02/24 11:32:11;;;;;;;0.30;0.20;;;;;;;10.05;74.30;98915.44;5093861;28;20445;-46
2024/02/24 11:34:42;;;;;;;0.30;0.20;;;;;;;9.72;74.60;98917.91;5092399;28;20440;-46
2024/02/24 11:37:15;;;;;;;0.30;0.20;;;;;;;10.33;73.48;98925.59;5067706;28;20966;-46
2024/02/24 11:39:42;;;;;;;0.30;0.20;;;;;;;9.95;70.40;98929.22;5067408;28;20445;-46